Coppell, Texas
Current Conditions -  °F | °C
As of 2:53 AM on Monday 22 Dec 2014 (Local Time) from KDFW Reporting Station
Broken Clouds Broken Clouds  
Wind Chill: 52°   Ceiling: 1700
Heat Index: 52°   Visibility: 10mi
Dew Point: 47°   Wind: 23mph
Humidity: 83%   Direction: 190°S
Pressure: 29.61"   Gusts: NA
Location:  32.98°N, 96.99°W
Report Text: KDFW 220853Z 19020KT 10SM BKN017 11/08 A2961 RMK AO2 PK WND 19026/0803 SLP025 T01110083 56030 $
Loading
Personal Weather Stations






























Interactive Weather Map New forecast layout! Learn more

10-Day Weather Forecast

Advertisements
Track Severe Weather on mobile